createdAt,value
2018-11-12T00:01:06.430Z,13.27
2018-11-12T00:03:33.460Z,18.33
2018-11-12T00:06:00.713Z,13.80
2018-11-12T00:08:27.732Z,19.23
2018-11-12T00:10:54.714Z,15.70
2018-11-12T00:13:21.792Z,19.13
2018-11-12T00:15:48.767Z,19.00
2018-11-12T00:18:15.769Z,16.33
2018-11-12T00:20:42.805Z,19.30
2018-11-12T00:23:09.972Z,17.87
2018-11-12T00:25:37.539Z,22.20
2018-11-12T00:28:04.881Z,23.40
2018-11-12T00:30:33.057Z,18.77
2018-11-12T00:33:00.728Z,19.67
2018-11-12T00:35:28.440Z,24.10
2018-11-12T00:37:55.724Z,19.33
2018-11-12T00:40:22.768Z,17.10
2018-11-12T00:42:49.943Z,25.17
2018-11-12T00:45:17.482Z,16.47
2018-11-12T00:47:44.444Z,22.80
2018-11-12T00:50:12.632Z,19.80
2018-11-12T00:52:39.635Z,18.17
2018-11-12T00:55:07.760Z,19.03
2018-11-12T00:57:34.697Z,20.47
2018-11-12T01:00:01.664Z,21.07
2018-11-12T01:02:28.608Z,21.83
2018-11-12T01:04:55.524Z,22.13
2018-11-12T01:07:22.452Z,18.80
2018-11-12T01:09:49.352Z,22.53
2018-11-12T01:12:16.277Z,14.70
2018-11-12T01:14:43.183Z,17.03
2018-11-12T01:17:10.092Z,20.43
2018-11-12T01:19:36.995Z,19.17
2018-11-12T01:22:04.143Z,15.60
2018-11-12T01:24:31.037Z,17.77
2018-11-12T01:26:57.936Z,20.50
2018-11-12T01:29:24.832Z,18.73
2018-11-12T01:31:51.729Z,16.60
2018-11-12T01:34:18.659Z,18.10
2018-11-12T01:36:45.655Z,17.53
2018-11-12T01:39:12.552Z,19.87
2018-11-12T01:41:39.977Z,16.30
2018-11-12T01:44:07.308Z,17.63
2018-11-12T01:46:34.216Z,17.00
2018-11-12T01:49:01.120Z,21.00
2018-11-12T01:51:28.029Z,18.83
2018-11-12T01:53:54.934Z,15.37
2018-11-12T01:56:21.822Z,16.90
2018-11-12T01:58:48.732Z,17.90
2018-11-12T02:01:15.652Z,21.60
2018-11-12T02:03:42.566Z,19.90
2018-11-12T02:06:09.444Z,15.47
2018-11-12T02:08:36.402Z,19.50
2018-11-12T02:11:03.308Z,18.43
2018-11-12T02:13:30.225Z,18.07
2018-11-12T02:15:57.112Z,16.80
2018-11-12T02:18:24.012Z,17.80
2018-11-12T02:20:50.896Z,19.93
2018-11-12T02:23:17.808Z,22.00
2018-11-12T02:25:44.712Z,18.93
2018-11-12T02:28:11.628Z,19.37
2018-11-12T02:30:44.341Z,19.20
2018-11-12T02:33:11.261Z,20.57
2018-11-12T02:35:38.160Z,20.00
2018-11-12T02:38:05.161Z,21.33
2018-11-12T02:40:32.063Z,20.73
2018-11-12T02:42:58.971Z,20.13
2018-11-12T02:45:25.957Z,23.87
2018-11-12T02:47:52.876Z,22.73
2018-11-12T02:50:19.814Z,23.30
2018-11-12T02:52:46.720Z,23.53
2018-11-12T02:55:14.614Z,24.27
2018-11-12T02:57:42.396Z,27.77
2018-11-12T03:00:12.313Z,25.97
2018-11-12T03:02:39.268Z,24.40
2018-11-12T03:05:06.359Z,26.13
2018-11-12T03:07:33.299Z,27.50
2018-11-12T03:10:00.200Z,33.70
2018-11-12T03:12:27.130Z,27.33
2018-11-12T03:14:54.036Z,25.23
2018-11-12T03:17:20.987Z,29.57
2018-11-12T03:19:47.920Z,30.20
2018-11-12T03:22:14.874Z,27.30
2018-11-12T03:24:41.832Z,26.30
2018-11-12T03:27:08.773Z,26.53
2018-11-12T03:29:35.727Z,39.60
2018-11-12T03:32:02.653Z,34.03
2018-11-12T03:34:29.594Z,36.03
2018-11-12T03:36:56.565Z,34.33
2018-11-12T03:39:23.538Z,32.30
2018-11-12T03:41:50.406Z,29.83
2018-11-12T03:44:17.334Z,35.27
2018-11-12T03:46:44.221Z,34.97
2018-11-12T03:49:11.129Z,28.07
2018-11-12T03:51:38.032Z,32.23
2018-11-12T03:54:04.931Z,26.30
2018-11-12T03:56:31.831Z,32.27
2018-11-12T03:58:58.734Z,39.43
2018-11-12T04:01:31.025Z,41.53
2018-11-12T04:03:57.948Z,39.80
2018-11-12T04:06:24.888Z,36.40
2018-11-12T04:08:51.820Z,36.97
2018-11-12T04:11:18.732Z,45.40
2018-11-12T04:13:45.644Z,41.53
2018-11-12T04:16:19.313Z,36.67
2018-11-12T04:18:46.224Z,36.73
2018-11-12T04:21:13.148Z,40.90
2018-11-12T04:23:40.070Z,38.40
2018-11-12T04:26:06.982Z,36.33
2018-11-12T04:28:33.965Z,43.70
2018-11-12T04:31:00.913Z,46.17
2018-11-12T04:33:27.855Z,44.90
2018-11-12T04:35:54.781Z,42.83
2018-11-12T04:38:21.709Z,31.80
2018-11-12T04:40:48.619Z,41.43
2018-11-12T04:43:15.549Z,42.97
2018-11-12T04:45:42.541Z,38.80
2018-11-12T04:48:09.384Z,35.20
2018-11-12T04:50:36.271Z,40.77
2018-11-12T04:53:03.168Z,28.00
2018-11-12T04:55:30.139Z,40.13
2018-11-12T04:57:56.993Z,37.23
2018-11-12T05:00:25.217Z,48.87
2018-11-12T05:02:52.223Z,35.87
2018-11-12T05:05:20.450Z,46.47
2018-11-12T05:07:47.374Z,47.87
2018-11-12T05:10:15.674Z,36.20
2018-11-12T05:12:43.100Z,43.97
2018-11-12T05:15:12.537Z,34.00
2018-11-12T05:17:39.630Z,44.93
2018-11-12T05:20:12.547Z,43.40
2018-11-12T05:22:39.800Z,38.43
2018-11-12T05:25:07.066Z,42.63
2018-11-12T05:27:34.018Z,43.17
2018-11-12T05:30:00.979Z,35.63
2018-11-12T05:32:27.897Z,39.70
2018-11-12T05:34:54.810Z,46.23
2018-11-12T05:37:21.731Z,39.60
2018-11-12T05:39:48.654Z,38.17
2018-11-12T05:42:15.557Z,45.67
2018-11-12T05:44:42.538Z,41.03
2018-11-12T05:47:09.425Z,40.77
2018-11-12T05:49:43.149Z,41.27
2018-11-12T05:52:10.077Z,43.97
2018-11-12T05:54:37.008Z,40.13
2018-11-12T05:57:03.964Z,35.40
2018-11-12T05:59:30.897Z,40.80
2018-11-12T06:01:57.829Z,38.87
2018-11-12T06:04:24.766Z,42.60
2018-11-12T06:06:51.693Z,37.03
2018-11-12T06:09:18.625Z,28.80
2018-11-12T06:11:45.570Z,36.90
2018-11-12T06:14:12.477Z,42.13
2018-11-12T06:16:39.403Z,36.90
2018-11-12T06:19:06.335Z,31.50
2018-11-12T06:21:33.235Z,35.37
2018-11-12T06:24:00.157Z,36.20
2018-11-12T06:26:27.085Z,32.60
2018-11-12T06:28:54.008Z,48.40
2018-11-12T06:31:21.107Z,52.30
2018-11-12T06:33:47.922Z,45.07
2018-11-12T06:36:14.845Z,44.53
2018-11-12T06:38:41.781Z,52.37
2018-11-12T06:41:08.722Z,50.03
2018-11-12T06:43:35.661Z,45.07
2018-11-12T06:46:02.582Z,39.13
2018-11-12T06:48:29.505Z,30.90
2018-11-12T06:50:56.436Z,38.03
2018-11-12T06:53:23.373Z,31.80
2018-11-12T06:55:50.293Z,46.17
2018-11-12T06:58:17.205Z,37.43
2018-11-12T07:00:44.183Z,46.03
2018-11-12T07:03:11.056Z,44.70
2018-11-12T07:05:37.968Z,46.73
2018-11-12T07:08:05.083Z,45.50
2018-11-12T07:10:32.008Z,49.27
2018-11-12T07:12:59.641Z,51.77
2018-11-12T07:15:27.362Z,50.90
2018-11-12T07:17:54.281Z,44.27
2018-11-12T07:20:22.435Z,52.07
2018-11-12T07:22:49.721Z,57.40
2018-11-12T07:25:18.117Z,53.30
2018-11-12T07:27:44.949Z,42.60
2018-11-12T07:30:16.224Z,47.80
2018-11-12T07:32:43.560Z,50.67
2018-11-12T07:35:12.801Z,50.90
2018-11-12T07:37:40.160Z,53.70
2018-11-12T07:40:07.776Z,53.20
2018-11-12T07:42:34.840Z,45.97
2018-11-12T07:45:01.761Z,44.27
2018-11-12T07:47:28.684Z,45.70
2018-11-12T07:49:55.598Z,43.90
2018-11-12T07:52:22.541Z,45.50
2018-11-12T07:54:49.473Z,53.73
2018-11-12T07:57:16.417Z,40.60
2018-11-12T07:59:43.329Z,36.33
2018-11-12T08:02:10.289Z,36.33
2018-11-12T08:04:37.245Z,45.63
2018-11-12T08:07:04.616Z,36.23
2018-11-12T08:09:31.621Z,38.27
2018-11-12T08:11:58.522Z,35.07
2018-11-12T08:14:25.471Z,38.27
2018-11-12T08:16:52.344Z,37.03
2018-11-12T08:19:19.249Z,33.90
2018-11-12T08:21:46.241Z,36.47
2018-11-12T08:24:13.180Z,39.70
2018-11-12T08:26:40.026Z,46.97
2018-11-12T08:29:06.925Z,47.27
2018-11-12T08:31:34.299Z,51.40
2018-11-12T08:34:01.221Z,44.93
2018-11-12T08:36:28.191Z,40.17
2018-11-12T08:38:55.066Z,39.53
2018-11-12T08:41:21.979Z,41.40
2018-11-12T08:43:48.917Z,43.93
2018-11-12T08:46:15.969Z,47.13
2018-11-12T08:48:42.837Z,37.07
2018-11-12T08:51:09.709Z,37.20
2018-11-12T08:53:36.608Z,35.17
2018-11-12T08:56:03.517Z,35.63
2018-11-12T08:58:31.248Z,31.63
2018-11-12T09:00:58.271Z,33.00
2018-11-12T09:03:25.105Z,36.13
2018-11-12T09:05:52.048Z,30.93
2018-11-12T09:08:18.973Z,29.33
2018-11-12T09:10:45.921Z,28.27
2018-11-12T09:13:12.851Z,30.90
2018-11-12T09:15:39.794Z,33.27
2018-11-12T09:18:06.734Z,27.63
2018-11-12T09:20:33.644Z,27.70
2018-11-12T09:23:00.561Z,31.23
2018-11-12T09:25:27.931Z,32.67
2018-11-12T09:27:54.868Z,32.43
2018-11-12T09:30:26.035Z,43.87
2018-11-12T09:32:53.183Z,40.70
2018-11-12T09:35:21.298Z,39.20
2018-11-12T09:37:49.336Z,34.13
2018-11-12T09:40:18.928Z,31.57
2018-11-12T09:42:46.022Z,30.97
2018-11-12T09:45:12.937Z,35.43
2018-11-12T09:47:40.755Z,31.03
2018-11-12T09:50:10.100Z,33.40
2018-11-12T09:52:37.049Z,33.10
2018-11-12T09:55:04.465Z,30.50
2018-11-12T09:57:31.405Z,24.27
2018-11-12T09:59:58.339Z,41.63
2018-11-12T10:02:26.732Z,68.67
2018-11-12T10:04:53.518Z,42.40
2018-11-12T10:07:20.672Z,24.13
2018-11-12T10:09:48.699Z,26.70
2018-11-12T10:12:14.880Z,27.57
2018-11-12T10:14:41.936Z,22.90
2018-11-12T10:17:08.692Z,26.87
2018-11-12T10:19:33.771Z,22.37
2018-11-12T10:22:00.684Z,24.90
2018-11-12T10:24:27.627Z,20.60
2018-11-12T10:26:54.551Z,17.33
2018-11-12T10:29:21.514Z,19.53
2018-11-12T10:31:48.417Z,20.87
2018-11-12T10:34:16.028Z,20.13
2018-11-12T10:36:42.862Z,18.07
2018-11-12T10:39:09.788Z,17.67
2018-11-12T10:41:36.719Z,17.73
2018-11-12T10:44:03.682Z,19.67
2018-11-12T10:46:30.612Z,30.93
2018-11-12T10:48:57.860Z,30.40
2018-11-12T10:51:24.817Z,20.00
2018-11-12T10:53:51.720Z,18.00
2018-11-12T10:56:18.626Z,18.33
2018-11-12T10:58:45.554Z,17.17
2018-11-12T11:01:17.427Z,21.27
2018-11-12T11:03:45.927Z,14.07
2018-11-12T11:06:12.968Z,15.30
2018-11-12T11:08:39.929Z,14.83
2018-11-12T11:11:13.746Z,12.73
2018-11-12T11:13:40.721Z,15.10
2018-11-12T11:16:07.641Z,13.10
2018-11-12T11:18:34.570Z,13.50
2018-11-12T11:21:01.549Z,10.87
2018-11-12T11:23:28.442Z,9.27
2018-11-12T11:25:55.376Z,8.50
2018-11-12T11:28:22.303Z,8.93
2018-11-12T11:30:49.212Z,8.17
2018-11-12T11:33:16.147Z,11.07
2018-11-12T11:35:43.077Z,8.50
2018-11-12T11:38:10.770Z,9.17
2018-11-12T11:40:37.725Z,8.20
2018-11-12T11:43:04.630Z,8.13
2018-11-12T11:45:31.529Z,10.13
2018-11-12T11:47:58.516Z,9.17
2018-11-12T11:50:26.286Z,8.80
2018-11-12T11:52:53.097Z,10.27
2018-11-12T11:55:21.300Z,8.10
2018-11-12T11:57:48.665Z,8.77
2018-11-12T12:00:17.447Z,9.20
2018-11-12T12:02:45.359Z,8.80
2018-11-12T12:05:13.288Z,10.40
2018-11-12T12:07:40.271Z,9.43
2018-11-12T12:10:07.902Z,11.67
2018-11-12T12:12:34.806Z,10.07
2018-11-12T12:15:02.206Z,9.97
2018-11-12T12:17:29.137Z,12.53
2018-11-12T12:19:56.062Z,14.83
2018-11-12T12:22:22.957Z,11.07
2018-11-12T12:24:49.947Z,14.23
2018-11-12T12:27:16.812Z,13.30
2018-11-12T12:29:43.712Z,15.93
2018-11-12T12:32:10.633Z,20.00
2018-11-12T12:34:37.536Z,17.37
2018-11-12T12:37:04.772Z,12.20
2018-11-12T12:39:31.664Z,13.83
2018-11-12T12:41:58.564Z,13.43
2018-11-12T12:44:25.530Z,15.90
2018-11-12T12:46:52.391Z,17.23
2018-11-12T12:49:19.318Z,13.37
2018-11-12T12:51:46.233Z,12.43
2018-11-12T12:54:13.221Z,12.03
2018-11-12T12:56:40.128Z,11.77
2018-11-12T12:59:07.064Z,16.27
2018-11-12T13:01:34.053Z,15.00
2018-11-12T13:04:00.900Z,12.90
2018-11-12T13:06:27.897Z,11.57
2018-11-12T13:08:54.761Z,12.97
2018-11-12T13:11:21.682Z,10.73
2018-11-12T13:13:48.675Z,12.30
2018-11-12T13:16:15.569Z,12.23
2018-11-12T13:18:42.464Z,11.53
2018-11-12T13:21:09.413Z,14.47
2018-11-12T13:23:36.608Z,13.87
2018-11-12T13:26:03.545Z,16.63
2018-11-12T13:28:30.449Z,35.73
2018-11-12T13:30:57.360Z,26.93
2018-11-12T13:33:24.288Z,25.50
2018-11-12T13:35:51.180Z,18.50
2018-11-12T13:38:18.107Z,17.17
2018-11-12T13:40:45.024Z,17.30
2018-11-12T13:43:11.937Z,15.43
2018-11-12T13:45:38.850Z,18.60
2018-11-12T13:48:05.849Z,17.83
2018-11-12T13:50:32.775Z,17.63
2018-11-12T13:53:00.884Z,17.60
2018-11-12T13:55:27.782Z,14.03
2018-11-12T13:57:54.784Z,17.30
2018-11-12T14:00:23.219Z,16.03
2018-11-12T14:02:50.640Z,15.27
2018-11-12T14:05:19.004Z,14.40
2018-11-12T14:07:46.172Z,14.97
2018-11-12T14:10:16.533Z,15.93
2018-11-12T14:12:43.973Z,15.57
2018-11-12T14:15:13.565Z,15.63
2018-11-12T14:17:41.118Z,18.10
2018-11-12T14:20:08.155Z,18.80
2018-11-12T14:22:35.306Z,19.87
2018-11-12T14:25:02.483Z,22.57
2018-11-12T14:27:29.389Z,25.20
2018-11-12T14:29:56.283Z,20.30
2018-11-12T14:32:23.194Z,36.27
2018-11-12T14:34:50.113Z,26.03
2018-11-12T14:37:17.018Z,30.10
2018-11-12T14:39:43.982Z,26.67
2018-11-12T14:42:10.834Z,40.07
2018-11-12T14:44:37.745Z,38.33
2018-11-12T14:47:05.365Z,41.67
2018-11-12T14:49:32.288Z,39.07
2018-11-12T14:51:59.205Z,36.80
2018-11-12T14:54:26.120Z,32.53
2018-11-12T14:56:53.069Z,40.93
2018-11-12T14:59:19.989Z,25.17
2018-11-12T15:01:46.960Z,20.50
2018-11-12T15:04:13.840Z,41.37
2018-11-12T15:06:40.749Z,31.60
2018-11-12T15:09:09.263Z,33.73
2018-11-12T15:11:36.287Z,41.67
2018-11-12T15:14:03.221Z,34.60
2018-11-12T15:16:30.149Z,29.80
2018-11-12T15:18:57.064Z,38.47
2018-11-12T15:21:23.980Z,43.63
2018-11-12T15:23:50.895Z,38.57
2018-11-12T15:26:17.825Z,39.47
2018-11-12T15:28:44.742Z,49.53
2018-11-12T15:31:11.660Z,42.70
2018-11-12T15:33:38.773Z,47.93
2018-11-12T15:36:05.700Z,31.57
2018-11-12T15:38:32.608Z,52.33
2018-11-12T15:40:59.551Z,56.07
2018-11-12T15:43:26.452Z,49.00
2018-11-12T15:45:53.381Z,55.13
2018-11-12T15:48:20.281Z,37.90
2018-11-12T15:50:47.233Z,52.63
2018-11-12T15:53:14.144Z,49.20
2018-11-12T15:55:41.064Z,70.00
2018-11-12T15:58:08.010Z,70.20
2018-11-12T16:00:34.914Z,51.03
2018-11-12T16:03:01.885Z,40.63
2018-11-12T16:05:28.837Z,44.53
2018-11-12T16:07:55.781Z,45.73
2018-11-12T16:10:22.723Z,42.53
2018-11-12T16:12:49.689Z,58.93
2018-11-12T16:15:17.967Z,55.40
2018-11-12T16:17:44.907Z,36.63
2018-11-12T16:20:18.393Z,57.83
2018-11-12T16:22:46.038Z,71.77
2018-11-12T16:25:13.109Z,39.67
2018-11-12T16:27:40.482Z,43.23
2018-11-12T16:30:08.437Z,60.73
2018-11-12T16:32:35.360Z,33.77
2018-11-12T16:35:02.301Z,48.20
2018-11-12T16:37:29.805Z,63.20
2018-11-12T16:39:56.709Z,59.77
2018-11-12T16:42:23.656Z,66.13
2018-11-12T16:44:50.613Z,59.23
2018-11-12T16:47:17.520Z,56.80
2018-11-12T16:49:44.452Z,64.20
2018-11-12T16:52:11.363Z,59.87
2018-11-12T16:54:38.269Z,52.47
2018-11-12T16:57:05.289Z,54.70
2018-11-12T16:59:32.251Z,57.20
2018-11-12T17:01:59.153Z,58.07
2018-11-12T17:04:26.072Z,49.27
2018-11-12T17:06:52.992Z,51.17
2018-11-12T17:09:19.883Z,52.63
2018-11-12T17:11:46.916Z,41.53
2018-11-12T17:14:13.749Z,39.93
2018-11-12T17:16:40.680Z,59.00
2018-11-12T17:19:07.653Z,51.07
2018-11-12T17:21:34.674Z,59.57
2018-11-12T17:24:01.593Z,43.80
2018-11-12T17:26:28.528Z,68.30
2018-11-12T17:28:55.460Z,79.50
2018-11-12T17:31:22.381Z,53.13
2018-11-12T17:33:49.335Z,109.10
2018-11-12T17:36:16.332Z,124.63
2018-11-12T17:38:43.197Z,103.83
2018-11-12T17:41:10.148Z,71.83
2018-11-12T17:43:37.053Z,131.23
2018-11-12T17:46:04.036Z,106.97
2018-11-12T17:48:30.949Z,97.47
2018-11-12T17:50:57.849Z,112.53
2018-11-12T17:53:24.781Z,93.60
2018-11-12T17:55:51.692Z,80.27
2018-11-12T17:58:18.685Z,71.43
2018-11-12T18:00:45.614Z,88.17
2018-11-12T18:03:12.545Z,87.07
2018-11-12T18:05:39.448Z,103.63
2018-11-12T18:08:06.386Z,112.10
2018-11-12T18:10:33.275Z,146.90
2018-11-12T18:13:00.252Z,116.87
2018-11-12T18:15:27.152Z,95.03
2018-11-12T18:17:54.065Z,101.40
2018-11-12T18:20:23.240Z,89.43
2018-11-12T18:22:51.003Z,93.47
2018-11-12T18:25:17.896Z,95.07
2018-11-12T18:27:45.133Z,73.27
2018-11-12T18:30:15.247Z,71.00
2018-11-12T18:32:42.764Z,65.30
2018-11-12T18:35:12.310Z,70.60
2018-11-12T18:37:39.288Z,70.17
2018-11-12T18:40:08.218Z,85.67
2018-11-12T18:42:35.675Z,70.47
2018-11-12T18:45:02.689Z,57.30
2018-11-12T18:47:30.073Z,64.37
2018-11-12T18:49:57.264Z,63.50
2018-11-12T18:52:30.876Z,61.77
2018-11-12T18:54:57.781Z,59.33
2018-11-12T18:57:24.736Z,44.60
2018-11-12T18:59:51.616Z,39.67
2018-11-12T19:02:18.553Z,65.37
2018-11-12T19:04:45.484Z,61.57
2018-11-12T19:07:12.438Z,54.30
2018-11-12T19:09:39.365Z,44.23
2018-11-12T19:12:06.284Z,59.63
2018-11-12T19:14:33.188Z,53.00
2018-11-12T19:17:00.092Z,50.67
2018-11-12T19:19:27.008Z,60.17
2018-11-12T19:21:53.932Z,77.90
2018-11-12T19:24:21.140Z,50.83
2018-11-12T19:26:48.053Z,39.37
2018-11-12T19:29:14.978Z,39.40
2018-11-12T19:31:41.888Z,54.47
2018-11-12T19:34:08.825Z,38.57
2018-11-12T19:36:35.770Z,41.00
2018-11-12T19:39:02.826Z,52.70
2018-11-12T19:41:29.740Z,56.77
2018-11-12T19:43:56.701Z,38.30
2018-11-12T19:46:23.613Z,34.70
2018-11-12T19:48:50.605Z,36.73
2018-11-12T19:51:17.599Z,37.37
2018-11-12T19:53:44.444Z,31.67
2018-11-12T19:56:11.383Z,36.33
2018-11-12T19:58:38.312Z,37.90
2018-11-12T20:01:05.324Z,39.70
2018-11-12T20:03:32.257Z,42.87
2018-11-12T20:05:59.192Z,43.20
2018-11-12T20:08:26.109Z,33.17
2018-11-12T20:10:53.026Z,33.20
2018-11-12T20:13:19.950Z,27.73
2018-11-12T20:15:46.947Z,38.40
2018-11-12T20:18:13.800Z,30.93
2018-11-12T20:20:40.717Z,32.10
2018-11-12T20:23:07.649Z,47.37
2018-11-12T20:25:34.559Z,52.63
2018-11-12T20:28:01.477Z,38.40
2018-11-12T20:30:31.261Z,51.43
2018-11-12T20:32:58.187Z,40.47
2018-11-12T20:35:25.113Z,39.43
2018-11-12T20:37:52.057Z,53.10
2018-11-12T20:40:19.002Z,38.00
2018-11-12T20:42:46.727Z,37.67
2018-11-12T20:45:18.563Z,39.40
2018-11-12T20:47:47.231Z,51.67
2018-11-12T20:50:15.697Z,56.27
2018-11-12T20:52:43.365Z,52.27
2018-11-12T20:55:12.325Z,55.43
2018-11-12T20:57:39.865Z,60.60
2018-11-12T21:00:13.870Z,59.17
2018-11-12T21:02:42.287Z,53.50
2018-11-12T21:05:09.872Z,60.47
2018-11-12T21:07:38.417Z,55.00
2018-11-12T21:10:07.395Z,79.27
2018-11-12T21:12:35.765Z,66.07
2018-11-12T21:15:03.946Z,36.93
2018-11-12T21:17:31.586Z,52.13
2018-11-12T21:19:59.067Z,44.23
2018-11-12T21:22:26.974Z,41.87
2018-11-12T21:24:53.929Z,42.77
2018-11-12T21:27:20.896Z,42.63
2018-11-12T21:29:48.518Z,34.50
2018-11-12T21:32:16.070Z,45.70
2018-11-12T21:34:43.742Z,39.47
2018-11-12T21:37:11.294Z,31.70
2018-11-12T21:39:38.596Z,37.90
2018-11-12T21:42:06.898Z,46.23
2018-11-12T21:44:33.821Z,34.97
2018-11-12T21:47:01.378Z,45.13
2018-11-12T21:49:28.315Z,40.27
2018-11-12T21:51:55.254Z,42.83
2018-11-12T21:54:23.184Z,43.90
2018-11-12T21:56:50.950Z,37.37
2018-11-12T21:59:18.565Z,35.40
2018-11-12T22:01:46.028Z,40.17
2018-11-12T22:04:13.255Z,39.60
2018-11-12T22:06:40.188Z,37.10
2018-11-12T22:09:09.049Z,42.57
2018-11-12T22:11:36.265Z,64.90
2018-11-12T22:14:03.704Z,43.97
2018-11-12T22:16:36.497Z,38.63
2018-11-12T22:19:04.248Z,38.10
2018-11-12T22:21:32.159Z,42.87
2018-11-12T22:24:00.265Z,33.07
2018-11-12T22:26:29.199Z,36.93
2018-11-12T22:28:58.039Z,35.57
2018-11-12T22:31:26.646Z,36.50
2018-11-12T22:33:54.766Z,29.53
2018-11-12T22:36:21.710Z,33.90
2018-11-12T22:38:48.608Z,29.50
2018-11-12T22:41:16.797Z,32.77
2018-11-12T22:43:44.102Z,46.77
2018-11-12T22:46:11.045Z,31.63
2018-11-12T22:48:37.941Z,28.53
2018-11-12T22:51:04.864Z,38.07
2018-11-12T22:53:31.841Z,33.43
2018-11-12T22:55:58.752Z,27.43
2018-11-12T22:58:25.667Z,29.83
2018-11-12T23:00:52.623Z,25.80
2018-11-12T23:03:20.033Z,25.63
2018-11-12T23:05:46.989Z,23.03
2018-11-12T23:08:13.996Z,39.40
2018-11-12T23:10:40.924Z,27.83
2018-11-12T23:13:07.885Z,58.63
2018-11-12T23:15:34.821Z,30.50
2018-11-12T23:18:02.607Z,25.47
2018-11-12T23:20:29.633Z,27.87
2018-11-12T23:22:56.561Z,29.50
2018-11-12T23:25:23.502Z,30.33
2018-11-12T23:27:51.223Z,40.33
2018-11-12T23:30:19.419Z,33.40
2018-11-12T23:32:46.345Z,32.17
2018-11-12T23:35:15.580Z,39.00
2018-11-12T23:37:43.152Z,37.97
2018-11-12T23:40:10.698Z,38.10
2018-11-12T23:42:37.658Z,32.30
2018-11-12T23:45:06.118Z,34.43
2018-11-12T23:47:34.201Z,31.03
2018-11-12T23:50:01.283Z,34.57
2018-11-12T23:52:29.269Z,37.13
2018-11-12T23:54:56.196Z,34.93
2018-11-12T23:57:23.525Z,30.00
2018-11-12T23:59:50.473Z,32.87
